createdAt,value
2022-09-11T00:00:02.823Z,60.84
2022-09-11T00:01:29.604Z,60.18
2022-09-11T00:02:31.283Z,59.88
2022-09-11T00:03:34.501Z,59.59
2022-09-11T00:04:36.501Z,59.27
2022-09-11T00:05:40.474Z,58.37
2022-09-11T00:06:43.208Z,58.20
2022-09-11T00:07:44.828Z,59.23
2022-09-11T00:08:49.342Z,60.00
2022-09-11T00:09:50.956Z,61.73
2022-09-11T00:10:53.135Z,63.08
2022-09-11T00:11:54.980Z,64.38
2022-09-11T00:12:56.635Z,65.34
2022-09-11T00:13:58.947Z,65.05
2022-09-11T00:15:00.770Z,64.30
2022-09-11T00:16:07.241Z,63.45
2022-09-11T00:17:09.075Z,62.67
2022-09-11T00:18:15.026Z,62.14
2022-09-11T00:19:20.025Z,61.68
2022-09-11T00:20:23.260Z,61.28
2022-09-11T00:21:26.449Z,60.90
2022-09-11T00:22:28.274Z,60.66
2022-09-11T00:23:30.072Z,60.27
2022-09-11T00:24:32.217Z,60.04
2022-09-11T00:25:35.377Z,59.79
2022-09-11T00:26:38.515Z,59.53
2022-09-11T00:27:40.290Z,59.34
2022-09-11T00:28:41.981Z,58.64
2022-09-11T00:29:43.714Z,58.51
2022-09-11T00:30:47.051Z,59.30
2022-09-11T00:31:49.176Z,60.23
2022-09-11T00:32:50.977Z,61.57
2022-09-11T00:33:52.637Z,62.88
2022-09-11T00:34:54.367Z,64.64
2022-09-11T00:36:01.593Z,65.32
2022-09-11T00:37:03.566Z,64.85
2022-09-11T00:38:05.748Z,64.10
2022-09-11T00:39:07.970Z,63.22
2022-09-11T00:40:10.180Z,62.51
2022-09-11T00:41:18.919Z,61.97
2022-09-11T00:42:20.722Z,61.31
2022-09-11T00:43:22.746Z,61.01
2022-09-11T00:44:24.653Z,60.50
2022-09-11T00:45:28.346Z,60.19
2022-09-11T00:46:51.602Z,60.04
2022-09-11T00:47:59.466Z,59.68
2022-09-11T00:49:05.966Z,59.46
2022-09-11T00:50:19.472Z,59.26
2022-09-11T00:51:28.408Z,58.53
2022-09-11T00:52:36.744Z,58.98
2022-09-11T00:53:38.757Z,59.90
2022-09-11T00:54:49.645Z,61.09
2022-09-11T00:56:00.253Z,62.44
2022-09-11T00:57:07.466Z,64.29
2022-09-11T00:58:17.464Z,65.17
2022-09-11T00:59:27.957Z,64.61
2022-09-11T01:00:30.097Z,63.69
2022-09-11T01:01:32.299Z,62.93
2022-09-11T01:02:38.486Z,62.18
2022-09-11T01:03:40.776Z,61.53
2022-09-11T01:04:42.428Z,61.10
2022-09-11T01:05:44.596Z,60.64
2022-09-11T01:06:46.863Z,60.33
2022-09-11T01:07:54.388Z,60.21
2022-09-11T01:08:56.029Z,59.83
2022-09-11T01:09:59.852Z,59.61
2022-09-11T01:11:31.906Z,59.45
2022-09-11T01:12:51.589Z,58.61
2022-09-11T01:14:12.262Z,58.66
2022-09-11T01:15:36.206Z,60.30
2022-09-11T01:17:06.502Z,61.85
2022-09-11T01:18:17.066Z,64.15
2022-09-11T01:19:43.636Z,65.40
2022-09-11T01:21:03.302Z,64.88
2022-09-11T01:22:30.180Z,63.81
2022-09-11T01:23:48.110Z,62.89
2022-09-11T01:25:05.455Z,61.97
2022-09-11T01:26:37.442Z,61.29
2022-09-11T01:27:50.698Z,60.80
2022-09-11T01:29:19.336Z,60.45
2022-09-11T01:30:24.714Z,60.17
2022-09-11T01:31:41.057Z,59.88
2022-09-11T01:33:15.892Z,59.71
2022-09-11T01:34:45.701Z,59.48
2022-09-11T01:36:04.042Z,58.88
2022-09-11T01:37:44.766Z,58.72
2022-09-11T01:39:02.565Z,60.34
2022-09-11T01:40:16.511Z,61.94
2022-09-11T01:41:41.484Z,63.67
2022-09-11T01:42:49.763Z,65.32
2022-09-11T01:44:13.923Z,65.17
2022-09-11T01:45:17.151Z,64.15
2022-09-11T01:46:24.829Z,63.34
2022-09-11T01:47:33.206Z,62.75
2022-09-11T01:48:44.725Z,62.07
2022-09-11T01:49:58.816Z,61.57
2022-09-11T01:51:04.470Z,61.15
2022-09-11T01:52:16.508Z,60.81
2022-09-11T01:53:25.754Z,60.63
2022-09-11T01:54:35.266Z,60.43
2022-09-11T01:55:43.262Z,60.29
2022-09-11T01:56:57.346Z,60.13
2022-09-11T01:58:07.083Z,60.00
2022-09-11T01:59:16.116Z,59.94
2022-09-11T02:00:18.613Z,59.84
2022-09-11T02:01:35.308Z,59.70
2022-09-11T02:03:03.938Z,59.58
2022-09-11T02:04:10.965Z,59.55
2022-09-11T02:05:24.022Z,59.46
2022-09-11T02:06:36.616Z,59.25
2022-09-11T02:07:45.699Z,58.68
2022-09-11T02:08:56.749Z,59.24
2022-09-11T02:10:10.138Z,60.21
2022-09-11T02:11:16.390Z,62.08
2022-09-11T02:12:24.227Z,64.43
2022-09-11T02:13:41.090Z,65.65
2022-09-11T02:14:50.900Z,65.42
2022-09-11T02:16:16.712Z,64.67
2022-09-11T02:17:31.562Z,63.54
2022-09-11T02:18:45.404Z,62.84
2022-09-11T02:19:47.857Z,62.31
2022-09-11T02:20:51.807Z,61.92
2022-09-11T02:21:53.431Z,61.58
2022-09-11T02:22:55.499Z,61.22
2022-09-11T02:24:00.374Z,60.89
2022-09-11T02:25:03.101Z,60.64
2022-09-11T02:26:07.846Z,60.54
2022-09-11T02:27:16.879Z,60.32
2022-09-11T02:28:18.551Z,60.15
2022-09-11T02:29:21.210Z,59.97
2022-09-11T02:30:22.843Z,59.85
2022-09-11T02:31:25.784Z,59.77
2022-09-11T02:32:33.906Z,59.63
2022-09-11T02:33:37.540Z,59.49
2022-09-11T02:34:42.014Z,59.34
2022-09-11T02:35:52.132Z,58.65
2022-09-11T02:37:11.040Z,58.99
2022-09-11T02:38:32.885Z,60.30
2022-09-11T02:39:41.718Z,62.06
2022-09-11T02:41:01.413Z,62.82
2022-09-11T02:42:28.847Z,65.05
2022-09-11T02:43:39.716Z,65.99
2022-09-11T02:44:56.255Z,65.40
2022-09-11T02:46:18.581Z,64.36
2022-09-11T02:47:40.601Z,63.33
2022-09-11T02:49:00.449Z,62.83
2022-09-11T02:50:07.987Z,62.11
2022-09-11T02:51:29.714Z,61.68
2022-09-11T02:52:53.614Z,61.40
2022-09-11T02:53:58.196Z,61.21
2022-09-11T02:55:24.151Z,60.99
2022-09-11T02:56:37.328Z,60.68
2022-09-11T02:58:05.851Z,60.57
2022-09-11T02:59:22.578Z,60.34
2022-09-11T03:00:24.650Z,60.23
2022-09-11T03:01:26.358Z,60.16
2022-09-11T03:02:31.180Z,60.08
2022-09-11T03:03:40.866Z,60.03
2022-09-11T03:04:42.678Z,59.96
2022-09-11T03:05:44.382Z,59.91
2022-09-11T03:06:48.481Z,59.92
2022-09-11T03:07:50.537Z,59.85
2022-09-11T03:08:52.334Z,59.82
2022-09-11T03:09:54.591Z,59.80
2022-09-11T03:10:57.045Z,59.77
2022-09-11T03:11:59.335Z,59.80
2022-09-11T03:13:01.032Z,59.81
2022-09-11T03:14:05.681Z,59.81
2022-09-11T03:15:10.362Z,59.75
2022-09-11T03:16:12.591Z,59.73
2022-09-11T03:17:14.321Z,59.70
2022-09-11T03:18:16.217Z,59.68
2022-09-11T03:19:17.915Z,59.66
2022-09-11T03:20:20.182Z,59.73
2022-09-11T03:21:21.876Z,59.72
2022-09-11T03:22:24.334Z,59.68
2022-09-11T03:23:27.618Z,59.64
2022-09-11T03:24:29.689Z,59.59
2022-09-11T03:25:31.580Z,59.54
2022-09-11T03:26:33.801Z,59.46
2022-09-11T03:27:35.423Z,59.33
2022-09-11T03:28:37.126Z,58.81
2022-09-11T03:29:41.756Z,59.08
2022-09-11T03:30:43.393Z,59.53
2022-09-11T03:31:45.133Z,60.43
2022-09-11T03:32:48.072Z,61.96
2022-09-11T03:33:49.740Z,63.19
2022-09-11T03:34:51.482Z,65.26
2022-09-11T03:35:54.006Z,65.75
2022-09-11T03:36:55.672Z,65.63
2022-09-11T03:37:57.670Z,64.96
2022-09-11T03:38:59.310Z,64.28
2022-09-11T03:40:01.655Z,63.67
2022-09-11T03:41:04.042Z,63.04
2022-09-11T03:42:06.484Z,62.51
2022-09-11T03:43:09.467Z,62.07
2022-09-11T03:44:12.908Z,61.70
2022-09-11T03:45:14.925Z,61.45
2022-09-11T03:46:17.690Z,61.16
2022-09-11T03:47:22.089Z,61.02
2022-09-11T03:48:25.202Z,61.00
2022-09-11T03:49:26.960Z,60.79
2022-09-11T03:50:29.562Z,60.64
2022-09-11T03:51:32.061Z,60.55
2022-09-11T03:52:34.697Z,60.42
2022-09-11T03:53:37.573Z,60.29
2022-09-11T03:54:39.832Z,60.16
2022-09-11T03:55:41.621Z,60.04
2022-09-11T03:56:43.397Z,59.99
2022-09-11T03:57:45.079Z,59.90
2022-09-11T03:58:46.854Z,59.81
2022-09-11T03:59:49.517Z,59.73
2022-09-11T04:00:52.372Z,59.67
2022-09-11T04:01:54.047Z,59.56
2022-09-11T04:02:56.027Z,59.51
2022-09-11T04:04:07.646Z,59.46
2022-09-11T04:05:12.965Z,59.22
2022-09-11T04:06:15.179Z,58.57
2022-09-11T04:07:17.757Z,59.11
2022-09-11T04:08:19.450Z,59.76
2022-09-11T04:09:21.233Z,60.94
2022-09-11T04:10:24.488Z,63.13
2022-09-11T04:11:26.265Z,65.08
2022-09-11T04:12:29.564Z,65.61
2022-09-11T04:13:34.269Z,65.33
2022-09-11T04:14:37.174Z,64.76
2022-09-11T04:15:40.287Z,64.03
2022-09-11T04:16:42.498Z,63.30
2022-09-11T04:17:44.156Z,62.74
2022-09-11T04:18:47.162Z,62.28
2022-09-11T04:19:49.433Z,62.04
2022-09-11T04:20:51.102Z,61.74
2022-09-11T04:21:54.406Z,61.58
2022-09-11T04:22:56.273Z,61.32
2022-09-11T04:24:00.310Z,61.02
2022-09-11T04:25:02.576Z,60.80
2022-09-11T04:26:15.799Z,60.70
2022-09-11T04:27:18.381Z,60.47
2022-09-11T04:28:22.479Z,60.36
2022-09-11T04:29:24.199Z,60.18
2022-09-11T04:30:25.945Z,59.98
2022-09-11T04:31:28.059Z,59.88
2022-09-11T04:32:29.813Z,59.72
2022-09-11T04:33:31.469Z,59.62
2022-09-11T04:34:33.117Z,59.51
2022-09-11T04:35:40.346Z,59.43
2022-09-11T04:36:42.039Z,59.06
2022-09-11T04:37:46.710Z,58.54
2022-09-11T04:38:55.141Z,58.75
2022-09-11T04:39:56.830Z,60.22
2022-09-11T04:41:00.911Z,61.43
2022-09-11T04:42:04.326Z,63.01
2022-09-11T04:43:06.562Z,64.98
2022-09-11T04:44:08.493Z,65.91
2022-09-11T04:45:16.195Z,65.67
2022-09-11T04:46:18.268Z,64.98
2022-09-11T04:47:20.802Z,64.32
2022-09-11T04:48:22.444Z,63.71
2022-09-11T04:49:24.311Z,63.13
2022-09-11T04:50:26.423Z,62.73
2022-09-11T04:51:45.201Z,62.16
2022-09-11T04:52:48.622Z,61.75
2022-09-11T04:53:52.118Z,61.56
2022-09-11T04:54:54.163Z,61.25
2022-09-11T04:56:03.535Z,61.06
2022-09-11T04:57:05.889Z,60.83
2022-09-11T04:58:10.068Z,60.76
2022-09-11T04:59:15.939Z,60.60
2022-09-11T05:00:21.122Z,60.47
2022-09-11T05:01:24.971Z,60.36
2022-09-11T05:02:28.439Z,60.24
2022-09-11T05:03:30.162Z,60.11
2022-09-11T05:04:32.669Z,59.99
2022-09-11T05:05:35.507Z,59.88
2022-09-11T05:06:38.049Z,59.98
2022-09-11T05:07:42.593Z,60.00
2022-09-11T05:08:46.671Z,59.93
2022-09-11T05:09:50.211Z,59.86
2022-09-11T05:10:53.144Z,59.80
2022-09-11T05:11:56.977Z,59.75
2022-09-11T05:12:59.558Z,59.74
2022-09-11T05:14:01.749Z,59.73
2022-09-11T05:15:05.298Z,59.67
2022-09-11T05:16:17.864Z,59.77
2022-09-11T05:17:19.607Z,59.85
2022-09-11T05:18:22.078Z,59.75
2022-09-11T05:19:26.161Z,59.68
2022-09-11T05:20:28.031Z,59.61
2022-09-11T05:21:31.884Z,59.57
2022-09-11T05:22:33.553Z,59.50
2022-09-11T05:23:36.546Z,59.40
2022-09-11T05:24:39.395Z,58.84
2022-09-11T05:25:41.117Z,58.59
2022-09-11T05:26:43.353Z,59.28
2022-09-11T05:27:45.546Z,60.66
2022-09-11T05:28:47.443Z,62.15
2022-09-11T05:29:49.062Z,63.51
2022-09-11T05:30:51.032Z,65.18
2022-09-11T05:31:53.236Z,65.38
2022-09-11T05:32:56.910Z,64.97
2022-09-11T05:34:00.603Z,64.28
2022-09-11T05:35:02.329Z,63.47
2022-09-11T05:36:05.549Z,62.93
2022-09-11T05:37:07.621Z,62.45
2022-09-11T05:38:14.089Z,61.99
2022-09-11T05:39:15.695Z,61.67
2022-09-11T05:40:17.605Z,61.38
2022-09-11T05:41:21.077Z,61.19
2022-09-11T05:42:23.016Z,60.98
2022-09-11T05:43:27.331Z,60.78
2022-09-11T05:44:30.981Z,60.61
2022-09-11T05:45:32.800Z,60.50
2022-09-11T05:46:34.538Z,60.28
2022-09-11T05:47:37.429Z,60.12
2022-09-11T05:48:39.743Z,60.09
2022-09-11T05:49:41.393Z,59.89
2022-09-11T05:50:43.374Z,59.77
2022-09-11T05:51:45.178Z,59.69
2022-09-11T05:52:47.037Z,59.53
2022-09-11T05:53:52.806Z,59.52
2022-09-11T05:54:54.513Z,59.43
2022-09-11T05:55:56.322Z,59.11
2022-09-11T05:56:58.194Z,58.77
2022-09-11T05:58:00.533Z,59.43
2022-09-11T05:59:02.923Z,60.38
2022-09-11T06:00:09.742Z,62.07
2022-09-11T06:01:29.291Z,63.89
2022-09-11T06:02:39.310Z,65.39
2022-09-11T06:03:41.107Z,65.17
2022-09-11T06:04:44.230Z,64.58
2022-09-11T06:05:46.627Z,63.80
2022-09-11T06:06:48.733Z,63.05
2022-09-11T06:07:51.390Z,62.45
2022-09-11T06:08:53.683Z,61.95
2022-09-11T06:09:58.665Z,61.57
2022-09-11T06:11:07.535Z,61.22
2022-09-11T06:12:12.248Z,61.00
2022-09-11T06:13:17.946Z,60.63
2022-09-11T06:14:21.489Z,60.40
2022-09-11T06:15:45.653Z,60.27
2022-09-11T06:16:48.252Z,59.94
2022-09-11T06:17:50.410Z,59.87
2022-09-11T06:18:54.271Z,59.76
2022-09-11T06:19:56.165Z,59.58
2022-09-11T06:21:09.886Z,59.59
2022-09-11T06:22:16.876Z,59.48
2022-09-11T06:23:19.951Z,59.25
2022-09-11T06:24:21.942Z,58.74
2022-09-11T06:25:25.271Z,58.99
2022-09-11T06:26:27.466Z,59.99
2022-09-11T06:27:29.135Z,61.32
2022-09-11T06:28:30.834Z,62.41
2022-09-11T06:29:33.033Z,63.80
2022-09-11T06:30:35.425Z,65.40
2022-09-11T06:31:37.321Z,65.42
2022-09-11T06:32:40.082Z,64.73
2022-09-11T06:33:42.839Z,63.91
2022-09-11T06:34:44.532Z,63.13
2022-09-11T06:36:01.465Z,62.59
2022-09-11T06:37:03.777Z,61.90
2022-09-11T06:38:05.988Z,61.49
2022-09-11T06:39:08.391Z,61.18
2022-09-11T06:40:13.302Z,60.89
2022-09-11T06:41:16.731Z,60.46
2022-09-11T06:42:19.231Z,60.44
2022-09-11T06:43:21.133Z,60.30
2022-09-11T06:44:23.758Z,60.08
2022-09-11T06:45:31.129Z,59.90
2022-09-11T06:46:32.767Z,59.76
2022-09-11T06:47:35.180Z,59.56
2022-09-11T06:48:37.778Z,59.47
2022-09-11T06:49:40.446Z,59.14
2022-09-11T06:51:07.991Z,58.41
2022-09-11T06:52:09.639Z,59.10
2022-09-11T06:53:14.224Z,60.21
2022-09-11T06:54:22.729Z,61.13
2022-09-11T06:55:24.561Z,62.70
2022-09-11T06:56:34.734Z,65.06
2022-09-11T06:57:41.228Z,66.11
2022-09-11T06:58:46.006Z,65.86
2022-09-11T06:59:47.794Z,65.07
2022-09-11T07:00:50.333Z,64.23
2022-09-11T07:01:52.812Z,63.36
2022-09-11T07:02:56.888Z,62.91
2022-09-11T07:03:59.501Z,62.34
2022-09-11T07:05:01.232Z,61.86
2022-09-11T07:06:04.048Z,61.49
2022-09-11T07:07:05.722Z,61.29
2022-09-11T07:08:07.702Z,60.96
2022-09-11T07:09:11.988Z,60.81
2022-09-11T07:10:25.612Z,60.51
2022-09-11T07:11:32.770Z,60.39
2022-09-11T07:12:34.445Z,60.36
2022-09-11T07:13:38.095Z,60.27
2022-09-11T07:14:41.311Z,60.17
2022-09-11T07:15:50.294Z,59.99
2022-09-11T07:16:55.298Z,59.89
2022-09-11T07:17:57.136Z,59.76
2022-09-11T07:18:59.286Z,59.42
2022-09-11T07:20:02.055Z,58.86
2022-09-11T07:21:08.918Z,58.86
2022-09-11T07:22:10.530Z,59.96
2022-09-11T07:23:12.171Z,61.10
2022-09-11T07:24:13.785Z,62.29
2022-09-11T07:25:18.380Z,63.88
2022-09-11T07:26:24.126Z,64.96
2022-09-11T07:27:28.689Z,65.03
2022-09-11T07:28:30.959Z,64.44
2022-09-11T07:29:33.920Z,63.64
2022-09-11T07:30:35.997Z,63.00
2022-09-11T07:31:38.840Z,62.50
2022-09-11T07:32:41.199Z,62.09
2022-09-11T07:33:46.052Z,61.56
2022-09-11T07:34:48.336Z,61.15
2022-09-11T07:35:49.935Z,60.83
2022-09-11T07:36:51.887Z,60.55
2022-09-11T07:37:53.850Z,60.29
2022-09-11T07:39:00.262Z,59.98
2022-09-11T07:40:09.398Z,59.64
2022-09-11T07:41:11.243Z,59.73
2022-09-11T07:42:13.027Z,59.68
2022-09-11T07:43:15.568Z,59.60
2022-09-11T07:44:18.561Z,59.51
2022-09-11T07:45:22.878Z,59.43
2022-09-11T07:46:25.902Z,58.96
2022-09-11T07:47:28.242Z,58.60
2022-09-11T07:48:30.581Z,59.36
2022-09-11T07:49:32.217Z,60.30
2022-09-11T07:50:33.860Z,61.09
2022-09-11T07:51:37.849Z,62.39
2022-09-11T07:52:42.227Z,64.55
2022-09-11T07:53:56.391Z,65.40
2022-09-11T07:55:00.119Z,65.15
2022-09-11T07:56:07.839Z,64.56
2022-09-11T07:57:09.518Z,63.81
2022-09-11T07:58:11.495Z,63.10
2022-09-11T07:59:13.354Z,62.53
2022-09-11T08:00:18.642Z,62.17
2022-09-11T08:01:29.821Z,61.68
2022-09-11T08:02:32.180Z,61.39
2022-09-11T08:03:35.637Z,61.18
2022-09-11T08:04:38.136Z,60.67
2022-09-11T08:05:40.914Z,60.17
2022-09-11T08:06:46.396Z,60.38
2022-09-11T08:07:55.688Z,60.27
2022-09-11T08:09:01.710Z,60.16
2022-09-11T08:10:26.084Z,60.01
2022-09-11T08:11:29.408Z,59.83
2022-09-11T08:12:32.260Z,59.54
2022-09-11T08:13:35.141Z,59.43
2022-09-11T08:14:36.978Z,58.86
2022-09-11T08:15:48.080Z,58.69
2022-09-11T08:16:50.239Z,59.49
2022-09-11T08:17:52.032Z,60.75
2022-09-11T08:18:54.791Z,61.59
2022-09-11T08:19:57.845Z,63.24
2022-09-11T08:21:07.623Z,65.14
2022-09-11T08:22:11.301Z,65.66
2022-09-11T08:23:18.629Z,65.10
2022-09-11T08:24:21.381Z,64.32
2022-09-11T08:25:24.446Z,63.42
2022-09-11T08:26:29.946Z,62.64
2022-09-11T08:27:32.690Z,62.05
2022-09-11T08:28:37.018Z,61.51
2022-09-11T08:29:39.202Z,61.09
2022-09-11T08:30:40.962Z,60.59
2022-09-11T08:31:43.919Z,60.32
2022-09-11T08:32:46.589Z,59.92
2022-09-11T08:33:49.341Z,59.94
2022-09-11T08:34:52.090Z,59.82
2022-09-11T08:35:57.833Z,59.75
2022-09-11T08:36:59.774Z,59.62
2022-09-11T08:38:03.251Z,59.52
2022-09-11T08:39:05.365Z,59.47
2022-09-11T08:40:11.721Z,59.17
2022-09-11T08:41:41.241Z,58.65
2022-09-11T08:42:47.272Z,59.38
2022-09-11T08:43:58.970Z,60.46
2022-09-11T08:45:04.654Z,61.73
2022-09-11T08:46:13.372Z,63.50
2022-09-11T08:47:20.166Z,65.42
2022-09-11T08:48:33.246Z,65.66
2022-09-11T08:49:46.164Z,64.91
2022-09-11T08:50:49.470Z,63.93
2022-09-11T08:51:56.284Z,63.17
2022-09-11T08:53:02.652Z,62.39
2022-09-11T08:54:06.743Z,61.59
2022-09-11T08:55:17.235Z,61.19
2022-09-11T08:56:22.672Z,60.81
2022-09-11T08:57:33.905Z,60.41
2022-09-11T08:59:04.369Z,60.02
2022-09-11T09:00:27.557Z,59.53
2022-09-11T09:01:40.104Z,59.39
2022-09-11T09:03:21.189Z,59.39
2022-09-11T09:04:45.449Z,61.12
2022-09-11T09:06:25.417Z,63.05
2022-09-11T09:07:28.264Z,65.38
2022-09-11T09:08:55.422Z,65.42
2022-09-11T09:10:21.895Z,64.51
2022-09-11T09:11:37.315Z,63.27
2022-09-11T09:13:02.510Z,62.67
2022-09-11T09:14:41.406Z,61.41
2022-09-11T09:15:55.267Z,61.35
2022-09-11T09:17:03.494Z,61.07
2022-09-11T09:18:26.729Z,60.57
2022-09-11T09:19:38.492Z,60.16
2022-09-11T09:20:51.790Z,60.07
2022-09-11T09:22:18.238Z,59.65
2022-09-11T09:23:27.166Z,59.03
2022-09-11T09:24:38.029Z,58.32
2022-09-11T09:25:42.687Z,58.71
2022-09-11T09:26:50.121Z,59.70
2022-09-11T09:28:18.131Z,61.31
2022-09-11T09:29:25.433Z,63.37
2022-09-11T09:30:46.579Z,65.06
2022-09-11T09:31:57.577Z,64.79
2022-09-11T09:33:14.125Z,63.73
2022-09-11T09:34:19.760Z,62.78
2022-09-11T09:35:28.722Z,61.91
2022-09-11T09:36:39.300Z,61.36
2022-09-11T09:37:41.808Z,60.68
2022-09-11T09:38:44.378Z,60.14
2022-09-11T09:39:46.966Z,59.64
2022-09-11T09:41:10.891Z,59.13
2022-09-11T09:42:40.529Z,58.16
2022-09-11T09:43:53.118Z,58.83
2022-09-11T09:45:32.528Z,60.19
2022-09-11T09:46:50.189Z,62.02
2022-09-11T09:47:53.430Z,63.34
2022-09-11T09:48:56.053Z,64.22
2022-09-11T09:49:58.471Z,64.25
2022-09-11T09:51:03.335Z,63.72
2022-09-11T09:52:27.068Z,62.83
2022-09-11T09:53:49.944Z,61.80
2022-09-11T09:55:01.641Z,60.86
2022-09-11T09:56:06.144Z,60.18
2022-09-11T09:57:11.627Z,59.54
2022-09-11T09:58:14.698Z,58.92
2022-09-11T09:59:32.922Z,58.65
2022-09-11T10:00:38.178Z,59.94
2022-09-11T10:01:40.035Z,60.97
2022-09-11T10:02:58.570Z,62.08
2022-09-11T10:04:13.818Z,64.19
2022-09-11T10:05:18.070Z,65.20
2022-09-11T10:06:22.023Z,65.03
2022-09-11T10:07:24.395Z,63.97
2022-09-11T10:08:33.769Z,62.96
2022-09-11T10:09:35.714Z,62.07
2022-09-11T10:10:40.600Z,61.22
2022-09-11T10:11:43.279Z,60.64
2022-09-11T10:12:45.705Z,59.94
2022-09-11T10:13:55.656Z,59.20
2022-09-11T10:15:03.222Z,58.24
2022-09-11T10:16:21.057Z,58.01
2022-09-11T10:17:31.129Z,59.45
2022-09-11T10:18:37.513Z,60.32
2022-09-11T10:19:43.219Z,62.18
2022-09-11T10:20:44.831Z,63.83
2022-09-11T10:21:46.473Z,64.50
2022-09-11T10:22:49.550Z,64.33
2022-09-11T10:23:55.775Z,63.85
2022-09-11T10:25:03.722Z,62.76
2022-09-11T10:26:05.413Z,61.81
2022-09-11T10:27:12.964Z,61.30
2022-09-11T10:28:22.969Z,60.65
2022-09-11T10:29:29.940Z,59.94
2022-09-11T10:30:53.398Z,59.70
2022-09-11T10:32:02.468Z,59.29
2022-09-11T10:33:15.693Z,58.32
2022-09-11T10:34:20.511Z,58.45
2022-09-11T10:35:27.861Z,59.34
2022-09-11T10:36:31.120Z,60.05
2022-09-11T10:37:34.229Z,61.62
2022-09-11T10:38:47.165Z,63.19
2022-09-11T10:39:50.197Z,64.46
2022-09-11T10:41:22.244Z,64.66
2022-09-11T10:42:28.802Z,63.95
2022-09-11T10:43:42.284Z,62.76
2022-09-11T10:44:47.656Z,62.01
2022-09-11T10:46:03.867Z,60.81
2022-09-11T10:47:27.549Z,60.10
2022-09-11T10:48:29.363Z,59.34
2022-09-11T10:49:31.134Z,58.44
2022-09-11T10:50:34.301Z,58.18
2022-09-11T10:51:43.112Z,58.85
2022-09-11T10:52:53.629Z,59.82
2022-09-11T10:54:21.773Z,60.79
2022-09-11T10:55:29.405Z,63.26
2022-09-11T10:56:40.057Z,64.23
2022-09-11T10:57:47.486Z,64.71
2022-09-11T10:58:58.184Z,64.19
2022-09-11T11:00:26.458Z,63.03
2022-09-11T11:01:28.236Z,61.39
2022-09-11T11:02:34.205Z,60.94
2022-09-11T11:03:36.382Z,60.46
2022-09-11T11:04:38.073Z,59.99
2022-09-11T11:06:09.989Z,59.37
2022-09-11T11:07:58.136Z,58.17
2022-09-11T11:09:30.974Z,58.92
2022-09-11T11:10:39.184Z,60.48
2022-09-11T11:11:52.628Z,62.06
2022-09-11T11:13:18.191Z,63.30
2022-09-11T11:14:41.880Z,64.22
2022-09-11T11:15:58.510Z,63.83
2022-09-11T11:17:08.304Z,63.00
2022-09-11T11:18:31.522Z,61.27
2022-09-11T11:19:47.153Z,60.44
2022-09-11T11:21:03.717Z,59.90
2022-09-11T11:22:39.747Z,59.27
2022-09-11T11:24:09.031Z,57.82
2022-09-11T11:25:54.640Z,58.38
2022-09-11T11:27:27.663Z,59.75
2022-09-11T11:28:44.529Z,61.10
2022-09-11T11:30:20.801Z,62.34
2022-09-11T11:31:51.748Z,64.07
2022-09-11T11:33:08.318Z,64.52
2022-09-11T11:34:37.092Z,63.49
2022-09-11T11:35:47.009Z,61.60
2022-09-11T11:37:01.569Z,60.53
2022-09-11T11:38:20.595Z,59.94
2022-09-11T11:39:39.484Z,59.37
2022-09-11T11:40:53.369Z,58.34
2022-09-11T11:41:54.874Z,58.28
2022-09-11T11:43:05.351Z,59.48
2022-09-11T11:44:17.309Z,59.99
2022-09-11T11:45:21.526Z,61.49
2022-09-11T11:46:43.428Z,62.53
2022-09-11T11:47:48.773Z,64.01
2022-09-11T11:48:59.320Z,64.38
2022-09-11T11:50:29.849Z,63.79
2022-09-11T11:52:00.621Z,62.48
2022-09-11T11:53:15.101Z,61.14
2022-09-11T11:54:52.315Z,59.90
2022-09-11T11:56:03.812Z,58.44
2022-09-11T11:57:22.265Z,57.14
2022-09-11T11:58:40.968Z,57.35
2022-09-11T11:59:58.393Z,58.02
2022-09-11T12:01:05.097Z,59.09
2022-09-11T12:02:09.757Z,59.75
2022-09-11T12:03:18.381Z,60.43
2022-09-11T12:04:44.793Z,60.78
2022-09-11T12:05:46.431Z,61.28
2022-09-11T12:06:48.360Z,62.21
2022-09-11T12:07:51.315Z,63.47
2022-09-11T12:08:53.279Z,63.96
2022-09-11T12:09:58.753Z,63.17
2022-09-11T12:11:07.874Z,62.05
2022-09-11T12:12:09.946Z,60.13
2022-09-11T12:13:15.898Z,58.70
2022-09-11T12:14:27.907Z,57.70
2022-09-11T12:15:34.270Z,58.01
2022-09-11T12:16:36.556Z,58.23
2022-09-11T12:17:40.168Z,58.65
2022-09-11T12:19:14.182Z,59.12
2022-09-11T12:20:43.226Z,59.90
2022-09-11T12:21:53.824Z,60.91
2022-09-11T12:22:55.969Z,61.01
2022-09-11T12:23:57.470Z,61.26
2022-09-11T12:24:59.424Z,61.32
2022-09-11T12:26:08.578Z,61.27
2022-09-11T12:27:35.507Z,61.45
2022-09-11T12:28:37.911Z,61.81
2022-09-11T12:29:54.760Z,62.06
2022-09-11T12:31:07.683Z,62.40
2022-09-11T12:32:29.031Z,62.56
2022-09-11T12:33:48.476Z,63.31
2022-09-11T12:34:50.005Z,61.44
2022-09-11T12:35:53.916Z,59.01
2022-09-11T12:37:12.516Z,57.05
2022-09-11T12:38:40.698Z,56.26
2022-09-11T12:39:54.063Z,57.18
2022-09-11T12:41:01.986Z,58.15
2022-09-11T12:42:25.345Z,58.83
2022-09-11T12:43:30.570Z,59.77
2022-09-11T12:44:52.224Z,60.62
2022-09-11T12:45:54.699Z,60.88
2022-09-11T12:46:56.277Z,61.36
2022-09-11T12:48:15.504Z,61.37
2022-09-11T12:49:23.143Z,62.09
2022-09-11T12:50:28.774Z,62.69
2022-09-11T12:51:38.175Z,63.47
2022-09-11T12:52:51.023Z,63.33
2022-09-11T12:54:00.840Z,62.20
2022-09-11T12:55:26.761Z,61.62
2022-09-11T12:56:36.258Z,59.75
2022-09-11T12:57:38.717Z,58.69
2022-09-11T12:58:45.014Z,57.42
2022-09-11T12:59:56.274Z,57.01
2022-09-11T13:01:22.953Z,57.45
2022-09-11T13:02:39.448Z,58.71
2022-09-11T13:04:09.094Z,59.27
2022-09-11T13:05:34.475Z,60.70
2022-09-11T13:07:04.065Z,61.58
2022-09-11T13:08:22.241Z,62.30
2022-09-11T13:09:36.120Z,63.08
2022-09-11T13:10:39.258Z,64.03
2022-09-11T13:11:49.909Z,63.86
2022-09-11T13:13:44.018Z,61.01
2022-09-11T13:14:51.667Z,59.73
2022-09-11T13:15:57.257Z,57.15
2022-09-11T13:17:01.608Z,55.86
2022-09-11T13:18:24.002Z,55.69
2022-09-11T13:19:37.446Z,56.14
2022-09-11T13:20:40.563Z,56.48
2022-09-11T13:21:42.786Z,57.09
2022-09-11T13:22:47.574Z,57.69
2022-09-11T13:23:50.992Z,57.94
2022-09-11T13:25:14.465Z,58.23
2022-09-11T13:26:26.362Z,58.60
2022-09-11T13:27:28.351Z,59.18
2022-09-11T13:28:31.709Z,58.97
2022-09-11T13:29:37.406Z,58.81
2022-09-11T13:31:02.093Z,58.78
2022-09-11T13:32:11.464Z,58.44
2022-09-11T13:33:21.690Z,58.49
2022-09-11T13:34:27.767Z,58.64
2022-09-11T13:35:30.063Z,58.81
2022-09-11T13:36:35.968Z,59.12
2022-09-11T13:37:45.445Z,58.92
2022-09-11T13:38:54.446Z,57.61
2022-09-11T13:39:56.248Z,56.83
2022-09-11T13:41:18.198Z,56.38
2022-09-11T13:42:23.130Z,56.02
2022-09-11T13:43:32.100Z,55.04
2022-09-11T13:44:47.026Z,53.77
2022-09-11T13:45:48.877Z,53.90
2022-09-11T13:46:52.155Z,54.31
2022-09-11T13:47:55.248Z,53.92
2022-09-11T13:49:25.069Z,53.91
2022-09-11T13:50:27.549Z,53.50
2022-09-11T13:51:31.267Z,52.48
2022-09-11T13:52:35.628Z,53.07
2022-09-11T13:53:37.549Z,54.16
2022-09-11T13:54:59.274Z,54.38
2022-09-11T13:56:00.974Z,54.78
2022-09-11T13:57:03.031Z,54.59
2022-09-11T13:58:23.247Z,54.46
2022-09-11T13:59:44.648Z,53.84
2022-09-11T14:00:50.459Z,51.95
2022-09-11T14:01:56.682Z,50.97
2022-09-11T14:03:00.046Z,51.26
2022-09-11T14:04:04.435Z,51.97
2022-09-11T14:05:28.375Z,52.08
2022-09-11T14:06:30.942Z,52.01
2022-09-11T14:07:41.272Z,52.46
2022-09-11T14:08:50.273Z,53.26
2022-09-11T14:10:04.247Z,53.27
2022-09-11T14:11:26.177Z,53.23
2022-09-11T14:12:29.347Z,53.24
2022-09-11T14:13:44.642Z,53.33
2022-09-11T14:14:53.090Z,53.21
2022-09-11T14:16:07.315Z,53.20
2022-09-11T14:17:11.305Z,53.60
2022-09-11T14:18:40.355Z,53.11
2022-09-11T14:19:45.871Z,53.16
2022-09-11T14:20:47.850Z,52.45
2022-09-11T14:21:51.562Z,52.57
2022-09-11T14:22:58.852Z,52.60
2022-09-11T14:24:00.815Z,52.62
2022-09-11T14:25:19.611Z,53.03
2022-09-11T14:26:32.395Z,53.60
2022-09-11T14:27:38.028Z,54.52
2022-09-11T14:28:41.045Z,54.50
2022-09-11T14:29:53.333Z,54.20
2022-09-11T14:31:13.845Z,54.04
2022-09-11T14:32:36.892Z,53.39
2022-09-11T14:33:38.886Z,53.84
2022-09-11T14:34:40.471Z,54.17
2022-09-11T14:35:46.349Z,53.90
2022-09-11T14:37:12.244Z,53.60
2022-09-11T14:38:18.043Z,54.05
2022-09-11T14:39:29.504Z,54.01
2022-09-11T14:40:31.190Z,54.63